sensor_id;sensor_type;location;lat;lon;timestamp;P1;durP1;ratioP1;P2;durP2;ratioP2
14369;SDS011;7268;50.792;0.252;2022-09-06T00:01:05;5.30;;;2.22;;
14369;SDS011;7268;50.792;0.252;2022-09-06T00:03:33;11.57;;;2.35;;
14369;SDS011;7268;50.792;0.252;2022-09-06T00:06:04;6.72;;;1.90;;
14369;SDS011;7268;50.792;0.252;2022-09-06T00:08:31;8.38;;;2.28;;
14369;SDS011;7268;50.792;0.252;2022-09-06T00:10:59;17.45;;;2.05;;
14369;SDS011;7268;50.792;0.252;2022-09-06T00:13:26;8.32;;;2.10;;
14369;SDS011;7268;50.792;0.252;2022-09-06T00:15:54;9.30;;;2.00;;
14369;SDS011;7268;50.792;0.252;2022-09-06T00:18:21;6.18;;;1.77;;
14369;SDS011;7268;50.792;0.252;2022-09-06T00:20:49;11.68;;;1.92;;
14369;SDS011;7268;50.792;0.252;2022-09-06T00:23:16;10.32;;;2.42;;
14369;SDS011;7268;50.792;0.252;2022-09-06T00:25:43;7.28;;;1.98;;
14369;SDS011;7268;50.792;0.252;2022-09-06T00:28:10;6.10;;;1.80;;
14369;SDS011;7268;50.792;0.252;2022-09-06T00:30:38;7.03;;;2.05;;
14369;SDS011;7268;50.792;0.252;2022-09-06T00:33:05;13.65;;;2.33;;
14369;SDS011;7268;50.792;0.252;2022-09-06T00:35:32;6.35;;;2.35;;
14369;SDS011;7268;50.792;0.252;2022-09-06T00:38:00;6.75;;;2.30;;
14369;SDS011;7268;50.792;0.252;2022-09-06T00:40:28;16.67;;;2.72;;
14369;SDS011;7268;50.792;0.252;2022-09-06T00:42:56;11.30;;;2.78;;
14369;SDS011;7268;50.792;0.252;2022-09-06T00:45:24;13.43;;;2.85;;
14369;SDS011;7268;50.792;0.252;2022-09-06T00:47:52;8.63;;;2.10;;
14369;SDS011;7268;50.792;0.252;2022-09-06T00:50:19;12.10;;;2.10;;
14369;SDS011;7268;50.792;0.252;2022-09-06T00:52:47;9.45;;;1.95;;
14369;SDS011;7268;50.792;0.252;2022-09-06T00:55:15;12.07;;;2.30;;
14369;SDS011;7268;50.792;0.252;2022-09-06T00:57:42;9.95;;;2.40;;
14369;SDS011;7268;50.792;0.252;2022-09-06T01:00:11;7.82;;;1.85;;
14369;SDS011;7268;50.792;0.252;2022-09-06T01:02:41;9.13;;;2.10;;
14369;SDS011;7268;50.792;0.252;2022-09-06T01:05:09;12.88;;;2.08;;
14369;SDS011;7268;50.792;0.252;2022-09-06T01:07:46;8.43;;;2.17;;
14369;SDS011;7268;50.792;0.252;2022-09-06T01:10:22;14.38;;;2.10;;
14369;SDS011;7268;50.792;0.252;2022-09-06T01:26:13;7.20;;;2.30;;
14369;SDS011;7268;50.792;0.252;2022-09-06T01:28:44;17.05;;;2.78;;
14369;SDS011;7268;50.792;0.252;2022-09-06T01:33:47;6.28;;;2.28;;
14369;SDS011;7268;50.792;0.252;2022-09-06T01:36:18;8.30;;;2.45;;
14369;SDS011;7268;50.792;0.252;2022-09-06T01:38:46;7.22;;;2.10;;
14369;SDS011;7268;50.792;0.252;2022-09-06T01:41:13;6.43;;;2.03;;
14369;SDS011;7268;50.792;0.252;2022-09-06T01:43:42;6.30;;;2.13;;
14369;SDS011;7268;50.792;0.252;2022-09-06T01:49:12;10.93;;;1.77;;
14369;SDS011;7268;50.792;0.252;2022-09-06T02:04:47;14.43;;;3.20;;
14369;SDS011;7268;50.792;0.252;2022-09-06T02:07:19;12.30;;;2.90;;
14369;SDS011;7268;50.792;0.252;2022-09-06T02:09:48;6.65;;;2.10;;
14369;SDS011;7268;50.792;0.252;2022-09-06T02:12:16;11.15;;;2.63;;
14369;SDS011;7268;50.792;0.252;2022-09-06T02:15:06;14.10;;;2.50;;
14369;SDS011;7268;50.792;0.252;2022-09-06T02:17:33;12.13;;;2.67;;
14369;SDS011;7268;50.792;0.252;2022-09-06T02:20:05;19.92;;;3.28;;
14369;SDS011;7268;50.792;0.252;2022-09-06T02:22:38;7.57;;;2.28;;
14369;SDS011;7268;50.792;0.252;2022-09-06T02:25:06;8.25;;;2.67;;
14369;SDS011;7268;50.792;0.252;2022-09-06T02:27:35;10.48;;;2.75;;
14369;SDS011;7268;50.792;0.252;2022-09-06T02:30:03;11.45;;;2.80;;
14369;SDS011;7268;50.792;0.252;2022-09-06T02:32:31;11.95;;;3.15;;
14369;SDS011;7268;50.792;0.252;2022-09-06T02:35:04;16.48;;;2.53;;
14369;SDS011;7268;50.792;0.252;2022-09-06T02:37:32;18.03;;;3.13;;
14369;SDS011;7268;50.792;0.252;2022-09-06T02:40:00;12.35;;;2.85;;
14369;SDS011;7268;50.792;0.252;2022-09-06T02:42:27;11.15;;;2.70;;
14369;SDS011;7268;50.792;0.252;2022-09-06T02:44:54;17.73;;;3.53;;
14369;SDS011;7268;50.792;0.252;2022-09-06T02:47:22;16.52;;;2.67;;
14369;SDS011;7268;50.792;0.252;2022-09-06T02:49:49;9.25;;;3.53;;
14369;SDS011;7268;50.792;0.252;2022-09-06T02:52:17;21.23;;;3.17;;
14369;SDS011;7268;50.792;0.252;2022-09-06T02:54:44;16.50;;;3.13;;
14369;SDS011;7268;50.792;0.252;2022-09-06T02:57:11;12.75;;;3.40;;
14369;SDS011;7268;50.792;0.252;2022-09-06T02:59:39;9.90;;;2.75;;
14369;SDS011;7268;50.792;0.252;2022-09-06T03:02:06;14.73;;;3.10;;
14369;SDS011;7268;50.792;0.252;2022-09-06T03:04:33;11.75;;;2.65;;
14369;SDS011;7268;50.792;0.252;2022-09-06T03:07:01;12.98;;;3.03;;
14369;SDS011;7268;50.792;0.252;2022-09-06T03:09:28;11.02;;;2.88;;
14369;SDS011;7268;50.792;0.252;2022-09-06T03:11:55;9.80;;;2.75;;
14369;SDS011;7268;50.792;0.252;2022-09-06T03:14:23;8.68;;;2.60;;
14369;SDS011;7268;50.792;0.252;2022-09-06T03:16:50;11.88;;;3.42;;
14369;SDS011;7268;50.792;0.252;2022-09-06T03:19:17;9.68;;;2.85;;
14369;SDS011;7268;50.792;0.252;2022-09-06T03:21:45;7.20;;;2.60;;
14369;SDS011;7268;50.792;0.252;2022-09-06T03:24:12;10.40;;;3.20;;
14369;SDS011;7268;50.792;0.252;2022-09-06T03:26:39;8.57;;;2.60;;
14369;SDS011;7268;50.792;0.252;2022-09-06T03:29:07;7.40;;;2.55;;
14369;SDS011;7268;50.792;0.252;2022-09-06T03:31:34;9.40;;;2.88;;
14369;SDS011;7268;50.792;0.252;2022-09-06T03:34:01;9.85;;;2.53;;
14369;SDS011;7268;50.792;0.252;2022-09-06T03:36:32;14.70;;;3.45;;
14369;SDS011;7268;50.792;0.252;2022-09-06T03:38:59;7.90;;;2.80;;
14369;SDS011;7268;50.792;0.252;2022-09-06T03:41:26;11.38;;;2.50;;
14369;SDS011;7268;50.792;0.252;2022-09-06T03:43:54;8.82;;;3.38;;
14369;SDS011;7268;50.792;0.252;2022-09-06T03:46:21;14.82;;;3.95;;
14369;SDS011;7268;50.792;0.252;2022-09-06T03:48:48;10.10;;;4.35;;
14369;SDS011;7268;50.792;0.252;2022-09-06T03:51:15;10.60;;;4.43;;
14369;SDS011;7268;50.792;0.252;2022-09-06T03:53:43;11.95;;;4.75;;
14369;SDS011;7268;50.792;0.252;2022-09-06T03:56:10;16.20;;;4.53;;
14369;SDS011;7268;50.792;0.252;2022-09-06T03:58:37;16.17;;;4.40;;
14369;SDS011;7268;50.792;0.252;2022-09-06T04:01:05;10.75;;;4.53;;
14369;SDS011;7268;50.792;0.252;2022-09-06T04:03:33;15.15;;;4.47;;
14369;SDS011;7268;50.792;0.252;2022-09-06T04:06:01;17.67;;;3.80;;
14369;SDS011;7268;50.792;0.252;2022-09-06T04:08:28;14.50;;;4.43;;
14369;SDS011;7268;50.792;0.252;2022-09-06T04:10:56;10.25;;;3.63;;
14369;SDS011;7268;50.792;0.252;2022-09-06T04:13:26;14.60;;;4.03;;
14369;SDS011;7268;50.792;0.252;2022-09-06T04:15:54;10.00;;;3.60;;
14369;SDS011;7268;50.792;0.252;2022-09-06T04:18:22;16.00;;;3.33;;
14369;SDS011;7268;50.792;0.252;2022-09-06T04:20:50;13.48;;;4.20;;
14369;SDS011;7268;50.792;0.252;2022-09-06T04:23:18;14.23;;;3.20;;
14369;SDS011;7268;50.792;0.252;2022-09-06T04:25:46;14.60;;;3.92;;
14369;SDS011;7268;50.792;0.252;2022-09-06T04:28:13;13.90;;;3.47;;
14369;SDS011;7268;50.792;0.252;2022-09-06T04:30:41;12.75;;;3.10;;
14369;SDS011;7268;50.792;0.252;2022-09-06T04:33:08;16.40;;;3.17;;
14369;SDS011;7268;50.792;0.252;2022-09-06T04:35:35;18.67;;;3.88;;
14369;SDS011;7268;50.792;0.252;2022-09-06T04:38:03;9.80;;;2.53;;
14369;SDS011;7268;50.792;0.252;2022-09-06T04:40:30;14.45;;;3.35;;
14369;SDS011;7268;50.792;0.252;2022-09-06T04:42:58;16.13;;;3.33;;
14369;SDS011;7268;50.792;0.252;2022-09-06T04:45:25;20.40;;;3.65;;
14369;SDS011;7268;50.792;0.252;2022-09-06T04:47:52;16.67;;;4.07;;
14369;SDS011;7268;50.792;0.252;2022-09-06T04:50:20;15.38;;;2.83;;
14369;SDS011;7268;50.792;0.252;2022-09-06T04:52:47;17.42;;;2.83;;
14369;SDS011;7268;50.792;0.252;2022-09-06T04:55:14;15.15;;;2.92;;
14369;SDS011;7268;50.792;0.252;2022-09-06T04:57:41;12.15;;;3.03;;
14369;SDS011;7268;50.792;0.252;2022-09-06T05:00:14;13.70;;;2.83;;
14369;SDS011;7268;50.792;0.252;2022-09-06T05:02:42;11.23;;;2.60;;
14369;SDS011;7268;50.792;0.252;2022-09-06T05:05:10;18.08;;;3.10;;
14369;SDS011;7268;50.792;0.252;2022-09-06T05:07:37;20.90;;;2.90;;
14369;SDS011;7268;50.792;0.252;2022-09-06T05:10:05;21.90;;;2.88;;
14369;SDS011;7268;50.792;0.252;2022-09-06T05:12:32;12.25;;;2.22;;
14369;SDS011;7268;50.792;0.252;2022-09-06T05:15:00;23.13;;;3.45;;
14369;SDS011;7268;50.792;0.252;2022-09-06T05:17:27;15.27;;;2.58;;
14369;SDS011;7268;50.792;0.252;2022-09-06T05:19:54;24.25;;;3.40;;
14369;SDS011;7268;50.792;0.252;2022-09-06T05:22:21;15.40;;;3.00;;
14369;SDS011;7268;50.792;0.252;2022-09-06T05:24:49;24.95;;;3.22;;
14369;SDS011;7268;50.792;0.252;2022-09-06T05:27:16;14.32;;;2.30;;
14369;SDS011;7268;50.792;0.252;2022-09-06T05:29:43;13.38;;;2.13;;
14369;SDS011;7268;50.792;0.252;2022-09-06T05:32:10;23.52;;;2.63;;
14369;SDS011;7268;50.792;0.252;2022-09-06T05:34:38;19.92;;;2.60;;
14369;SDS011;7268;50.792;0.252;2022-09-06T05:37:05;19.00;;;2.83;;
14369;SDS011;7268;50.792;0.252;2022-09-06T05:39:32;18.15;;;2.85;;
14369;SDS011;7268;50.792;0.252;2022-09-06T05:42:00;11.80;;;2.03;;
14369;SDS011;7268;50.792;0.252;2022-09-06T05:44:35;19.55;;;2.15;;
14369;SDS011;7268;50.792;0.252;2022-09-06T05:47:02;18.73;;;2.13;;
14369;SDS011;7268;50.792;0.252;2022-09-06T05:49:30;20.17;;;2.05;;
14369;SDS011;7268;50.792;0.252;2022-09-06T05:51:58;12.85;;;2.03;;
14369;SDS011;7268;50.792;0.252;2022-09-06T05:54:25;10.45;;;2.08;;
14369;SDS011;7268;50.792;0.252;2022-09-06T05:56:52;23.42;;;2.40;;
14369;SDS011;7268;50.792;0.252;2022-09-06T05:59:20;17.73;;;2.47;;
14369;SDS011;7268;50.792;0.252;2022-09-06T06:01:48;18.35;;;1.95;;
14369;SDS011;7268;50.792;0.252;2022-09-06T06:04:15;11.88;;;2.25;;
14369;SDS011;7268;50.792;0.252;2022-09-06T06:06:44;12.15;;;1.70;;
14369;SDS011;7268;50.792;0.252;2022-09-06T06:09:12;9.30;;;1.40;;
14369;SDS011;7268;50.792;0.252;2022-09-06T06:11:41;12.13;;;1.83;;
14369;SDS011;7268;50.792;0.252;2022-09-06T06:14:08;15.23;;;1.60;;
14369;SDS011;7268;50.792;0.252;2022-09-06T06:16:36;9.05;;;1.30;;
14369;SDS011;7268;50.792;0.252;2022-09-06T06:19:03;13.20;;;1.13;;
14369;SDS011;7268;50.792;0.252;2022-09-06T06:21:31;11.70;;;1.00;;
14369;SDS011;7268;50.792;0.252;2022-09-06T06:24:00;12.95;;;1.35;;
14369;SDS011;7268;50.792;0.252;2022-09-06T06:26:28;18.35;;;2.25;;
14369;SDS011;7268;50.792;0.252;2022-09-06T06:28:56;12.52;;;1.30;;
14369;SDS011;7268;50.792;0.252;2022-09-06T06:31:27;10.23;;;1.10;;
14369;SDS011;7268;50.792;0.252;2022-09-06T06:33:55;9.73;;;1.42;;
14369;SDS011;7268;50.792;0.252;2022-09-06T06:36:24;11.85;;;1.63;;
14369;SDS011;7268;50.792;0.252;2022-09-06T06:38:52;11.50;;;1.10;;
14369;SDS011;7268;50.792;0.252;2022-09-06T06:41:21;8.52;;;1.10;;
14369;SDS011;7268;50.792;0.252;2022-09-06T06:43:52;8.73;;;1.20;;
14369;SDS011;7268;50.792;0.252;2022-09-06T06:46:20;8.05;;;1.00;;
14369;SDS011;7268;50.792;0.252;2022-09-06T06:48:47;8.73;;;1.10;;
14369;SDS011;7268;50.792;0.252;2022-09-06T06:51:20;4.47;;;0.85;;
14369;SDS011;7268;50.792;0.252;2022-09-06T06:53:48;7.85;;;1.27;;
14369;SDS011;7268;50.792;0.252;2022-09-06T06:56:23;8.00;;;1.20;;
14369;SDS011;7268;50.792;0.252;2022-09-06T06:58:52;9.23;;;1.00;;
14369;SDS011;7268;50.792;0.252;2022-09-06T07:01:20;12.43;;;1.85;;
14369;SDS011;7268;50.792;0.252;2022-09-06T07:03:48;5.93;;;1.20;;
14369;SDS011;7268;50.792;0.252;2022-09-06T07:06:16;8.85;;;0.88;;
14369;SDS011;7268;50.792;0.252;2022-09-06T07:08:45;10.10;;;1.15;;
14369;SDS011;7268;50.792;0.252;2022-09-06T07:11:13;8.70;;;1.13;;
14369;SDS011;7268;50.792;0.252;2022-09-06T07:13:41;9.35;;;1.00;;
14369;SDS011;7268;50.792;0.252;2022-09-06T07:18:36;12.25;;;0.90;;
14369;SDS011;7268;50.792;0.252;2022-09-06T07:21:17;16.25;;;1.20;;
14369;SDS011;7268;50.792;0.252;2022-09-06T07:24:04;7.70;;;0.98;;
14369;SDS011;7268;50.792;0.252;2022-09-06T07:26:36;6.07;;;1.00;;
14369;SDS011;7268;50.792;0.252;2022-09-06T07:29:05;10.88;;;1.23;;
14369;SDS011;7268;50.792;0.252;2022-09-06T07:31:33;9.32;;;1.10;;
14369;SDS011;7268;50.792;0.252;2022-09-06T07:34:20;8.15;;;1.13;;
14369;SDS011;7268;50.792;0.252;2022-09-06T07:36:53;11.65;;;1.00;;
14369;SDS011;7268;50.792;0.252;2022-09-06T07:39:21;6.63;;;1.10;;
14369;SDS011;7268;50.792;0.252;2022-09-06T07:41:49;8.60;;;1.05;;
14369;SDS011;7268;50.792;0.252;2022-09-06T07:44:16;17.83;;;1.40;;
14369;SDS011;7268;50.792;0.252;2022-09-06T07:46:44;7.45;;;1.17;;
14369;SDS011;7268;50.792;0.252;2022-09-06T07:49:11;9.80;;;1.10;;
14369;SDS011;7268;50.792;0.252;2022-09-06T07:51:38;7.90;;;1.10;;
14369;SDS011;7268;50.792;0.252;2022-09-06T07:54:06;6.55;;;0.93;;
14369;SDS011;7268;50.792;0.252;2022-09-06T07:56:53;11.43;;;1.08;;
14369;SDS011;7268;50.792;0.252;2022-09-06T07:59:20;6.28;;;1.27;;
14369;SDS011;7268;50.792;0.252;2022-09-06T08:01:48;9.60;;;1.52;;
14369;SDS011;7268;50.792;0.252;2022-09-06T08:04:15;12.50;;;1.00;;
14369;SDS011;7268;50.792;0.252;2022-09-06T08:06:43;15.70;;;1.95;;
14369;SDS011;7268;50.792;0.252;2022-09-06T08:09:31;16.25;;;1.80;;
14369;SDS011;7268;50.792;0.252;2022-09-06T08:11:59;12.45;;;1.50;;
14369;SDS011;7268;50.792;0.252;2022-09-06T08:14:32;7.13;;;1.30;;
14369;SDS011;7268;50.792;0.252;2022-09-06T08:16:59;13.57;;;1.80;;
14369;SDS011;7268;50.792;0.252;2022-09-06T08:19:27;9.55;;;1.58;;
14369;SDS011;7268;50.792;0.252;2022-09-06T08:21:57;7.93;;;1.40;;
14369;SDS011;7268;50.792;0.252;2022-09-06T08:24:24;14.07;;;1.40;;
14369;SDS011;7268;50.792;0.252;2022-09-06T08:26:52;9.75;;;1.10;;
14369;SDS011;7268;50.792;0.252;2022-09-06T08:29:19;13.48;;;1.58;;
14369;SDS011;7268;50.792;0.252;2022-09-06T08:31:47;15.23;;;2.00;;
14369;SDS011;7268;50.792;0.252;2022-09-06T08:34:14;10.73;;;1.20;;
14369;SDS011;7268;50.792;0.252;2022-09-06T08:36:41;16.95;;;1.23;;
14369;SDS011;7268;50.792;0.252;2022-09-06T08:39:10;8.27;;;1.45;;
14369;SDS011;7268;50.792;0.252;2022-09-06T08:41:58;9.80;;;1.27;;
14369;SDS011;7268;50.792;0.252;2022-09-06T08:44:49;13.55;;;1.50;;
14369;SDS011;7268;50.792;0.252;2022-09-06T08:47:23;15.02;;;1.77;;
14369;SDS011;7268;50.792;0.252;2022-09-06T08:49:54;11.48;;;1.10;;
14369;SDS011;7268;50.792;0.252;2022-09-06T09:00:49;16.33;;;1.40;;
14369;SDS011;7268;50.792;0.252;2022-09-06T09:03:22;12.20;;;1.20;;
14369;SDS011;7268;50.792;0.252;2022-09-06T09:08:21;13.30;;;1.40;;
14369;SDS011;7268;50.792;0.252;2022-09-06T09:13:23;18.38;;;1.50;;
14369;SDS011;7268;50.792;0.252;2022-09-06T09:15:53;11.85;;;1.45;;
14369;SDS011;7268;50.792;0.252;2022-09-06T09:18:22;10.85;;;1.52;;
14369;SDS011;7268;50.792;0.252;2022-09-06T09:20:51;16.77;;;1.98;;
14369;SDS011;7268;50.792;0.252;2022-09-06T09:23:18;17.38;;;1.60;;
14369;SDS011;7268;50.792;0.252;2022-09-06T09:25:46;12.75;;;1.10;;
14369;SDS011;7268;50.792;0.252;2022-09-06T09:28:15;12.25;;;1.55;;
14369;SDS011;7268;50.792;0.252;2022-09-06T09:30:48;9.10;;;1.17;;
14369;SDS011;7268;50.792;0.252;2022-09-06T09:33:32;8.90;;;1.20;;
14369;SDS011;7268;50.792;0.252;2022-09-06T09:36:03;8.35;;;1.60;;
14369;SDS011;7268;50.792;0.252;2022-09-06T09:38:33;15.10;;;1.33;;
14369;SDS011;7268;50.792;0.252;2022-09-06T09:41:02;10.38;;;1.00;;
14369;SDS011;7268;50.792;0.252;2022-09-06T09:43:40;17.05;;;1.45;;
14369;SDS011;7268;50.792;0.252;2022-09-06T09:46:12;8.75;;;0.93;;
14369;SDS011;7268;50.792;0.252;2022-09-06T09:48:42;17.63;;;1.35;;
14369;SDS011;7268;50.792;0.252;2022-09-06T09:51:18;15.93;;;1.45;;
14369;SDS011;7268;50.792;0.252;2022-09-06T09:53:56;10.38;;;1.15;;
14369;SDS011;7268;50.792;0.252;2022-09-06T09:56:28;24.38;;;2.00;;
14369;SDS011;7268;50.792;0.252;2022-09-06T09:58:56;17.48;;;1.42;;
14369;SDS011;7268;50.792;0.252;2022-09-06T10:01:25;11.65;;;1.70;;
14369;SDS011;7268;50.792;0.252;2022-09-06T10:03:59;15.60;;;1.67;;
14369;SDS011;7268;50.792;0.252;2022-09-06T10:06:46;7.50;;;1.00;;
14369;SDS011;7268;50.792;0.252;2022-09-06T10:09:34;14.57;;;1.63;;
14369;SDS011;7268;50.792;0.252;2022-09-06T10:12:02;7.07;;;1.00;;
14369;SDS011;7268;50.792;0.252;2022-09-06T10:14:31;12.23;;;1.40;;
14369;SDS011;7268;50.792;0.252;2022-09-06T10:16:59;13.95;;;1.02;;
14369;SDS011;7268;50.792;0.252;2022-09-06T10:22:01;13.40;;;1.40;;
14369;SDS011;7268;50.792;0.252;2022-09-06T10:24:34;15.35;;;1.65;;
14369;SDS011;7268;50.792;0.252;2022-09-06T10:27:04;14.15;;;1.50;;
14369;SDS011;7268;50.792;0.252;2022-09-06T10:29:46;17.67;;;1.30;;
14369;SDS011;7268;50.792;0.252;2022-09-06T10:35:42;14.50;;;1.17;;
14369;SDS011;7268;50.792;0.252;2022-09-06T10:37:47;16.70;;;1.50;;
14369;SDS011;7268;50.792;0.252;2022-09-06T10:40:26;13.88;;;2.30;;
14369;SDS011;7268;50.792;0.252;2022-09-06T10:42:56;14.32;;;1.63;;
14369;SDS011;7268;50.792;0.252;2022-09-06T10:51:19;14.10;;;1.77;;
14369;SDS011;7268;50.792;0.252;2022-09-06T10:55:48;12.20;;;1.75;;
14369;SDS011;7268;50.792;0.252;2022-09-06T10:58:19;13.05;;;1.80;;
14369;SDS011;7268;50.792;0.252;2022-09-06T11:00:48;11.63;;;1.88;;
14369;SDS011;7268;50.792;0.252;2022-09-06T11:03:28;18.52;;;1.83;;
14369;SDS011;7268;50.792;0.252;2022-09-06T11:06:17;12.00;;;1.45;;
14369;SDS011;7268;50.792;0.252;2022-09-06T11:08:57;13.70;;;1.38;;
14369;SDS011;7268;50.792;0.252;2022-09-06T11:11:27;17.50;;;2.45;;
14369;SDS011;7268;50.792;0.252;2022-09-06T11:14:03;12.48;;;1.83;;
14369;SDS011;7268;50.792;0.252;2022-09-06T11:16:32;10.57;;;1.27;;
14369;SDS011;7268;50.792;0.252;2022-09-06T11:19:06;15.05;;;1.23;;
14369;SDS011;7268;50.792;0.252;2022-09-06T11:21:52;9.23;;;1.10;;
14369;SDS011;7268;50.792;0.252;2022-09-06T11:24:39;12.40;;;2.55;;
14369;SDS011;7268;50.792;0.252;2022-09-06T11:27:10;17.80;;;2.78;;
14369;SDS011;7268;50.792;0.252;2022-09-06T11:29:39;29.42;;;8.20;;
14369;SDS011;7268;50.792;0.252;2022-09-06T11:34:55;9.27;;;1.20;;
14369;SDS011;7268;50.792;0.252;2022-09-06T11:37:24;15.93;;;2.17;;
14369;SDS011;7268;50.792;0.252;2022-09-06T11:40:04;16.02;;;1.23;;
14369;SDS011;7268;50.792;0.252;2022-09-06T11:45:41;9.43;;;0.90;;
14369;SDS011;7268;50.792;0.252;2022-09-06T11:51:06;7.50;;;0.90;;
14369;SDS011;7268;50.792;0.252;2022-09-06T11:56:22;10.73;;;1.40;;
14369;SDS011;7268;50.792;0.252;2022-09-06T11:58:56;9.70;;;1.20;;
14369;SDS011;7268;50.792;0.252;2022-09-06T12:06:32;12.30;;;1.85;;
14369;SDS011;7268;50.792;0.252;2022-09-06T12:09:00;5.72;;;1.00;;
14369;SDS011;7268;50.792;0.252;2022-09-06T12:11:41;9.52;;;1.20;;
14369;SDS011;7268;50.792;0.252;2022-09-06T12:27:23;6.65;;;1.02;;
14369;SDS011;7268;50.792;0.252;2022-09-06T12:29:56;9.70;;;1.27;;
14369;SDS011;7268;50.792;0.252;2022-09-06T12:32:26;16.05;;;2.28;;
14369;SDS011;7268;50.792;0.252;2022-09-06T12:34:54;8.27;;;0.65;;
14369;SDS011;7268;50.792;0.252;2022-09-06T12:37:50;16.42;;;1.30;;
14369;SDS011;7268;50.792;0.252;2022-09-06T12:40:20;13.35;;;1.30;;
14369;SDS011;7268;50.792;0.252;2022-09-06T12:42:48;21.42;;;3.25;;
14369;SDS011;7268;50.792;0.252;2022-09-06T12:45:16;15.50;;;1.90;;
14369;SDS011;7268;50.792;0.252;2022-09-06T12:47:44;16.45;;;2.03;;
14369;SDS011;7268;50.792;0.252;2022-09-06T12:52:49;16.88;;;1.90;;
14369;SDS011;7268;50.792;0.252;2022-09-06T12:57:48;19.27;;;1.63;;
14369;SDS011;7268;50.792;0.252;2022-09-06T13:00:16;11.52;;;1.50;;
14369;SDS011;7268;50.792;0.252;2022-09-06T13:02:52;18.02;;;1.48;;
14369;SDS011;7268;50.792;0.252;2022-09-06T13:05:20;19.55;;;1.70;;
14369;SDS011;7268;50.792;0.252;2022-09-06T13:07:53;12.98;;;1.85;;
14369;SDS011;7268;50.792;0.252;2022-09-06T13:10:23;13.90;;;1.52;;
14369;SDS011;7268;50.792;0.252;2022-09-06T13:12:51;9.23;;;1.42;;
14369;SDS011;7268;50.792;0.252;2022-09-06T13:15:26;9.38;;;1.20;;
14369;SDS011;7268;50.792;0.252;2022-09-06T13:17:54;6.85;;;1.20;;
14369;SDS011;7268;50.792;0.252;2022-09-06T13:20:41;15.23;;;2.28;;
14369;SDS011;7268;50.792;0.252;2022-09-06T13:23:10;14.43;;;1.88;;
14369;SDS011;7268;50.792;0.252;2022-09-06T13:25:47;10.48;;;1.63;;
14369;SDS011;7268;50.792;0.252;2022-09-06T13:28:28;12.52;;;1.60;;
14369;SDS011;7268;50.792;0.252;2022-09-06T13:31:06;15.50;;;2.30;;
14369;SDS011;7268;50.792;0.252;2022-09-06T13:33:35;7.55;;;1.45;;
14369;SDS011;7268;50.792;0.252;2022-09-06T13:38:43;28.02;;;8.50;;
14369;SDS011;7268;50.792;0.252;2022-09-06T13:43:57;31.83;;;8.27;;
14369;SDS011;7268;50.792;0.252;2022-09-06T13:46:24;33.43;;;6.93;;
14369;SDS011;7268;50.792;0.252;2022-09-06T13:48:52;24.70;;;5.28;;
14369;SDS011;7268;50.792;0.252;2022-09-06T13:51:20;31.00;;;9.60;;
14369;SDS011;7268;50.792;0.252;2022-09-06T13:53:47;24.55;;;6.25;;
14369;SDS011;7268;50.792;0.252;2022-09-06T13:56:14;20.95;;;4.07;;
14369;SDS011;7268;50.792;0.252;2022-09-06T13:58:42;20.15;;;4.32;;
14369;SDS011;7268;50.792;0.252;2022-09-06T14:01:10;28.13;;;6.40;;
14369;SDS011;7268;50.792;0.252;2022-09-06T14:03:40;27.98;;;5.95;;
14369;SDS011;7268;50.792;0.252;2022-09-06T14:06:08;27.80;;;6.57;;
14369;SDS011;7268;50.792;0.252;2022-09-06T14:08:35;21.77;;;4.90;;
14369;SDS011;7268;50.792;0.252;2022-09-06T14:11:24;14.23;;;2.90;;
14369;SDS011;7268;50.792;0.252;2022-09-06T14:13:51;21.63;;;3.88;;
14369;SDS011;7268;50.792;0.252;2022-09-06T14:16:19;21.17;;;3.13;;
14369;SDS011;7268;50.792;0.252;2022-09-06T14:18:46;19.88;;;4.10;;
14369;SDS011;7268;50.792;0.252;2022-09-06T14:21:14;9.55;;;0.90;;
14369;SDS011;7268;50.792;0.252;2022-09-06T14:23:41;15.73;;;2.30;;
14369;SDS011;7268;50.792;0.252;2022-09-06T14:26:09;14.98;;;2.30;;
14369;SDS011;7268;50.792;0.252;2022-09-06T14:28:38;15.02;;;1.88;;
14369;SDS011;7268;50.792;0.252;2022-09-06T14:31:12;18.02;;;2.85;;
14369;SDS011;7268;50.792;0.252;2022-09-06T14:33:40;18.50;;;3.03;;
14369;SDS011;7268;50.792;0.252;2022-09-06T14:36:11;12.13;;;2.08;;
14369;SDS011;7268;50.792;0.252;2022-09-06T14:38:39;13.80;;;1.83;;
14369;SDS011;7268;50.792;0.252;2022-09-06T14:41:07;11.18;;;1.65;;
14369;SDS011;7268;50.792;0.252;2022-09-06T14:43:35;12.05;;;1.30;;
14369;SDS011;7268;50.792;0.252;2022-09-06T14:46:03;14.25;;;1.67;;
14369;SDS011;7268;50.792;0.252;2022-09-06T14:48:30;12.63;;;1.55;;
14369;SDS011;7268;50.792;0.252;2022-09-06T14:50:58;13.00;;;1.25;;
14369;SDS011;7268;50.792;0.252;2022-09-06T14:53:27;15.60;;;1.73;;
14369;SDS011;7268;50.792;0.252;2022-09-06T14:56:06;17.08;;;2.00;;
14369;SDS011;7268;50.792;0.252;2022-09-06T14:58:35;13.27;;;1.85;;
14369;SDS011;7268;50.792;0.252;2022-09-06T15:01:10;17.27;;;1.80;;
14369;SDS011;7268;50.792;0.252;2022-09-06T15:03:39;21.70;;;3.85;;
14369;SDS011;7268;50.792;0.252;2022-09-06T15:06:07;15.45;;;1.63;;
14369;SDS011;7268;50.792;0.252;2022-09-06T15:08:35;17.33;;;1.70;;
14369;SDS011;7268;50.792;0.252;2022-09-06T15:11:03;14.23;;;1.60;;
14369;SDS011;7268;50.792;0.252;2022-09-06T15:13:33;13.52;;;1.60;;
14369;SDS011;7268;50.792;0.252;2022-09-06T15:16:05;9.90;;;1.40;;
14369;SDS011;7268;50.792;0.252;2022-09-06T15:18:33;15.00;;;1.53;;
14369;SDS011;7268;50.792;0.252;2022-09-06T15:21:10;8.90;;;0.90;;
14369;SDS011;7268;50.792;0.252;2022-09-06T15:23:38;11.27;;;1.48;;
14369;SDS011;7268;50.792;0.252;2022-09-06T15:26:06;14.50;;;1.63;;
14369;SDS011;7268;50.792;0.252;2022-09-06T15:28:34;14.25;;;1.33;;
14369;SDS011;7268;50.792;0.252;2022-09-06T15:31:02;18.25;;;1.67;;
14369;SDS011;7268;50.792;0.252;2022-09-06T15:33:30;12.13;;;1.20;;
14369;SDS011;7268;50.792;0.252;2022-09-06T15:35:58;11.15;;;1.13;;
14369;SDS011;7268;50.792;0.252;2022-09-06T15:38:35;13.38;;;1.45;;
14369;SDS011;7268;50.792;0.252;2022-09-06T15:41:03;13.50;;;1.20;;
14369;SDS011;7268;50.792;0.252;2022-09-06T15:43:33;18.80;;;1.13;;
14369;SDS011;7268;50.792;0.252;2022-09-06T15:46:01;15.48;;;1.23;;
14369;SDS011;7268;50.792;0.252;2022-09-06T15:48:29;12.75;;;1.60;;
14369;SDS011;7268;50.792;0.252;2022-09-06T15:51:05;18.95;;;1.98;;
14369;SDS011;7268;50.792;0.252;2022-09-06T15:53:32;15.57;;;1.38;;
14369;SDS011;7268;50.792;0.252;2022-09-06T15:55:59;15.18;;;1.20;;
14369;SDS011;7268;50.792;0.252;2022-09-06T15:58:28;15.35;;;1.50;;
14369;SDS011;7268;50.792;0.252;2022-09-06T16:01:29;12.57;;;1.40;;
14369;SDS011;7268;50.792;0.252;2022-09-06T16:03:53;11.73;;;1.10;;
14369;SDS011;7268;50.792;0.252;2022-09-06T16:06:25;11.55;;;1.65;;
14369;SDS011;7268;50.792;0.252;2022-09-06T16:09:00;19.70;;;1.40;;
14369;SDS011;7268;50.792;0.252;2022-09-06T16:11:28;8.55;;;1.23;;
14369;SDS011;7268;50.792;0.252;2022-09-06T16:13:57;8.95;;;1.30;;
14369;SDS011;7268;50.792;0.252;2022-09-06T16:16:25;13.45;;;1.65;;
14369;SDS011;7268;50.792;0.252;2022-09-06T16:18:52;22.13;;;1.38;;
14369;SDS011;7268;50.792;0.252;2022-09-06T16:21:20;17.65;;;1.35;;
14369;SDS011;7268;50.792;0.252;2022-09-06T16:23:58;16.48;;;2.75;;
14369;SDS011;7268;50.792;0.252;2022-09-06T16:26:27;16.27;;;1.45;;
14369;SDS011;7268;50.792;0.252;2022-09-06T16:28:55;9.45;;;1.02;;
14369;SDS011;7268;50.792;0.252;2022-09-06T16:31:22;14.07;;;2.17;;
14369;SDS011;7268;50.792;0.252;2022-09-06T16:33:50;15.05;;;1.88;;
14369;SDS011;7268;50.792;0.252;2022-09-06T16:36:20;15.10;;;1.20;;
14369;SDS011;7268;50.792;0.252;2022-09-06T16:38:47;17.63;;;1.38;;
14369;SDS011;7268;50.792;0.252;2022-09-06T16:43:43;19.20;;;1.70;;
14369;SDS011;7268;50.792;0.252;2022-09-06T16:46:10;11.85;;;1.10;;
14369;SDS011;7268;50.792;0.252;2022-09-06T16:48:38;17.25;;;1.80;;
14369;SDS011;7268;50.792;0.252;2022-09-06T16:51:13;11.65;;;1.30;;